sensor_id;sensor_type;location;lat;lon;timestamp;pressure;altitude;pressure_sealevel;temperature;humidity
47710;BME280;33473;51.640;5.892;2023-04-03T00:09:32;102900;;;7.1;51.0
47710;BME280;33473;51.640;5.892;2023-04-03T00:22:52;102900;;;7.0;51.0
47710;BME280;33473;51.640;5.892;2023-04-03T00:36:11;102900;;;6.9;51.0
47710;BME280;33473;51.640;5.892;2023-04-03T00:49:31;102900;;;6.7;52.0
47710;BME280;33473;51.640;5.892;2023-04-03T01:02:51;102900;;;6.8;52.0
47710;BME280;33473;51.640;5.892;2023-04-03T01:16:10;102900;;;6.8;52.0
47710;BME280;33473;51.640;5.892;2023-04-03T01:29:30;102900;;;6.8;52.0
47710;BME280;33473;51.640;5.892;2023-04-03T01:42:50;102900;;;6.9;52.0
47710;BME280;33473;51.640;5.892;2023-04-03T01:56:09;102900;;;6.9;52.0
47710;BME280;33473;51.640;5.892;2023-04-03T02:09:29;102900;;;6.9;52.0
47710;BME280;33473;51.640;5.892;2023-04-03T02:22:49;102900;;;6.9;52.0
47710;BME280;33473;51.640;5.892;2023-04-03T02:36:08;102900;;;6.9;52.0
47710;BME280;33473;51.640;5.892;2023-04-03T02:49:28;102900;;;6.9;52.0
47710;BME280;33473;51.640;5.892;2023-04-03T03:02:48;102900;;;6.8;51.0
47710;BME280;33473;51.640;5.892;2023-04-03T03:16:07;102900;;;6.7;51.0
47710;BME280;33473;51.640;5.892;2023-04-03T03:29:27;102900;;;6.6;52.0
47710;BME280;33473;51.640;5.892;2023-04-03T03:42:47;102900;;;6.5;51.0
47710;BME280;33473;51.640;5.892;2023-04-03T03:56:06;102900;;;6.4;51.0
47710;BME280;33473;51.640;5.892;2023-04-03T04:09:26;103000;;;6.2;51.0
47710;BME280;33473;51.640;5.892;2023-04-03T04:22:46;103000;;;6.1;51.0
47710;BME280;33473;51.640;5.892;2023-04-03T04:36:05;103000;;;6.0;51.0
47710;BME280;33473;51.640;5.892;2023-04-03T04:49:25;103000;;;6.0;51.0
47710;BME280;33473;51.640;5.892;2023-04-03T05:02:45;103000;;;6.0;51.0
47710;BME280;33473;51.640;5.892;2023-04-03T05:16:04;103000;;;5.9;51.0
47710;BME280;33473;51.640;5.892;2023-04-03T05:29:24;103000;;;6.0;51.0
47710;BME280;33473;51.640;5.892;2023-04-03T05:42:44;103000;;;6.1;51.0
47710;BME280;33473;51.640;5.892;2023-04-03T05:56:03;103000;;;6.3;51.0
47710;BME280;33473;51.640;5.892;2023-04-03T06:09:23;103000;;;6.6;51.0
47710;BME280;33473;51.640;5.892;2023-04-03T06:22:43;103000;;;7.6;51.0
47710;BME280;33473;51.640;5.892;2023-04-03T06:36:02;103000;;;9.5;47.0
47710;BME280;33473;51.640;5.892;2023-04-03T06:49:22;103000;;;8.8;47.0
47710;BME280;33473;51.640;5.892;2023-04-03T07:02:42;103000;;;9.1;47.0
47710;BME280;33473;51.640;5.892;2023-04-03T07:16:01;103100;;;9.3;47.0
47710;BME280;33473;51.640;5.892;2023-04-03T07:29:21;103100;;;9.5;46.0
47710;BME280;33473;51.640;5.892;2023-04-03T07:42:41;103100;;;10.6;43.0
47710;BME280;33473;51.640;5.892;2023-04-03T07:56:00;103100;;;11.8;39.0
47710;BME280;33473;51.640;5.892;2023-04-03T08:09:20;103100;;;13.0;36.0
47710;BME280;33473;51.640;5.892;2023-04-03T08:22:40;103100;;;13.3;36.0
47710;BME280;33473;51.640;5.892;2023-04-03T08:36:00;103100;;;13.6;34.0
47710;BME280;33473;51.640;5.892;2023-04-03T08:49:19;103100;;;15.3;31.0
47710;BME280;33473;51.640;5.892;2023-04-03T09:02:39;103100;;;16.4;25.0
47710;BME280;33473;51.640;5.892;2023-04-03T09:15:59;103100;;;15.7;26.0
47710;BME280;33473;51.640;5.892;2023-04-03T09:29:18;103100;;;15.6;25.0
47710;BME280;33473;51.640;5.892;2023-04-03T09:42:38;103100;;;15.4;24.0
47710;BME280;33473;51.640;5.892;2023-04-03T09:55:58;103100;;;15.7;21.0
47710;BME280;33473;51.640;5.892;2023-04-03T10:09:17;103100;;;15.6;21.0
47710;BME280;33473;51.640;5.892;2023-04-03T10:22:37;103100;;;16.3;24.0
47710;BME280;33473;51.640;5.892;2023-04-03T10:35:57;103000;;;15.9;20.0
47710;BME280;33473;51.640;5.892;2023-04-03T10:49:16;103000;;;15.9;21.0
47710;BME280;33473;51.640;5.892;2023-04-03T11:02:36;103000;;;17.5;23.0
47710;BME280;33473;51.640;5.892;2023-04-03T11:15:56;103000;;;17.3;19.0
47710;BME280;33473;51.640;5.892;2023-04-03T11:29:16;103000;;;16.5;21.0
47710;BME280;33473;51.640;5.892;2023-04-03T11:42:35;103000;;;16.3;22.0
47710;BME280;33473;51.640;5.892;2023-04-03T11:55:55;103000;;;16.3;20.0
47710;BME280;33473;51.640;5.892;2023-04-03T12:09:15;103000;;;17.2;22.0
47710;BME280;33473;51.640;5.892;2023-04-03T12:22:34;103000;;;16.6;23.0
47710;BME280;33473;51.640;5.892;2023-04-03T12:35:54;102900;;;16.8;24.0
47710;BME280;33473;51.640;5.892;2023-04-03T12:49:14;102900;;;16.8;24.0
47710;BME280;33473;51.640;5.892;2023-04-03T13:02:33;102900;;;16.2;23.0
47710;BME280;33473;51.640;5.892;2023-04-03T13:15:53;102900;;;16.9;23.0
47710;BME280;33473;51.640;5.892;2023-04-03T13:29:13;102900;;;17.0;23.0
47710;BME280;33473;51.640;5.892;2023-04-03T13:42:32;102900;;;16.7;22.0
47710;BME280;33473;51.640;5.892;2023-04-03T13:55:52;102900;;;17.5;23.0
47710;BME280;33473;51.640;5.892;2023-04-03T14:09:12;102900;;;17.6;21.0
47710;BME280;33473;51.640;5.892;2023-04-03T14:22:31;102900;;;17.9;23.0
47710;BME280;33473;51.640;5.892;2023-04-03T14:35:51;102800;;;17.3;23.0
47710;BME280;33473;51.640;5.892;2023-04-03T14:49:11;102800;;;17.9;21.0
47710;BME280;33473;51.640;5.892;2023-04-03T15:02:30;102800;;;17.8;23.0
47710;BME280;33473;51.640;5.892;2023-04-03T15:15:50;102800;;;17.4;23.0
47710;BME280;33473;51.640;5.892;2023-04-03T15:29:10;102800;;;17.4;23.0
47710;BME280;33473;51.640;5.892;2023-04-03T15:42:29;102800;;;17.3;24.0
47710;BME280;33473;51.640;5.892;2023-04-03T15:55:49;102800;;;17.0;22.0
47710;BME280;33473;51.640;5.892;2023-04-03T16:09:09;102800;;;16.5;24.0
47710;BME280;33473;51.640;5.892;2023-04-03T16:22:28;102800;;;16.7;25.0
47710;BME280;33473;51.640;5.892;2023-04-03T16:35:48;102800;;;16.1;24.0
47710;BME280;33473;51.640;5.892;2023-04-03T16:49:08;102800;;;15.6;25.0
47710;BME280;33473;51.640;5.892;2023-04-03T17:02:27;102800;;;15.3;26.0
47710;BME280;33473;51.640;5.892;2023-04-03T17:15:47;102800;;;14.9;27.0
47710;BME280;33473;51.640;5.892;2023-04-03T17:29:07;102800;;;14.1;27.0
47710;BME280;33473;51.640;5.892;2023-04-03T17:42:26;102800;;;13.7;29.0
47710;BME280;33473;51.640;5.892;2023-04-03T17:55:46;102800;;;13.1;29.0
47710;BME280;33473;51.640;5.892;2023-04-03T18:09:06;102800;;;12.7;30.0
47710;BME280;33473;51.640;5.892;2023-04-03T18:22:25;102900;;;12.4;31.0
47710;BME280;33473;51.640;5.892;2023-04-03T18:35:45;102900;;;11.8;33.0
47710;BME280;33473;51.640;5.892;2023-04-03T18:49:05;102900;;;11.3;34.0
47710;BME280;33473;51.640;5.892;2023-04-03T19:02:24;102900;;;10.8;35.0
47710;BME280;33473;51.640;5.892;2023-04-03T19:15:44;102900;;;10.4;36.0
47710;BME280;33473;51.640;5.892;2023-04-03T19:29:04;102900;;;9.9;36.0
47710;BME280;33473;51.640;5.892;2023-04-03T19:42:23;102900;;;9.7;37.0
47710;BME280;33473;51.640;5.892;2023-04-03T19:55:43;102900;;;9.3;38.0
47710;BME280;33473;51.640;5.892;2023-04-03T20:09:03;102900;;;9.0;38.0
47710;BME280;33473;51.640;5.892;2023-04-03T20:22:22;102900;;;8.8;39.0
47710;BME280;33473;51.640;5.892;2023-04-03T20:35:42;102900;;;8.7;39.0
47710;BME280;33473;51.640;5.892;2023-04-03T20:49:02;102900;;;8.5;40.0
47710;BME280;33473;51.640;5.892;2023-04-03T21:02:21;102900;;;8.3;41.0
47710;BME280;33473;51.640;5.892;2023-04-03T21:15:41;102900;;;8.2;40.0
47710;BME280;33473;51.640;5.892;2023-04-03T21:29:01;102900;;;8.1;40.0
47710;BME280;33473;51.640;5.892;2023-04-03T21:42:20;102900;;;8.0;41.0
47710;BME280;33473;51.640;5.892;2023-04-03T21:55:40;102900;;;8.0;42.0
47710;BME280;33473;51.640;5.892;2023-04-03T22:09:00;102900;;;7.9;41.0
47710;BME280;33473;51.640;5.892;2023-04-03T22:22:20;102900;;;7.6;42.0
47710;BME280;33473;51.640;5.892;2023-04-03T22:35:39;102900;;;7.6;42.0
47710;BME280;33473;51.640;5.892;2023-04-03T22:48:59;102900;;;7.3;42.0
47710;BME280;33473;51.640;5.892;2023-04-03T23:02:19;102900;;;7.3;42.0
47710;BME280;33473;51.640;5.892;2023-04-03T23:15:38;102900;;;7.1;42.0
47710;BME280;33473;51.640;5.892;2023-04-03T23:28:58;102900;;;7.0;43.0
47710;BME280;33473;51.640;5.892;2023-04-03T23:42:18;102800;;;6.9;43.0
47710;BME280;33473;51.640;5.892;2023-04-03T23:55:37;102800;;;6.6;43.0
